Camden, SC (29020)

3:27 PM EDT on March 30, 2017 (GMT -0400)
Forest Dr | | Change Station
Active Advisory: Special Statement

Elev 304 ft 34.27 °N, 80.63 °W | Updated 4 seconds ago

Overcast
Overcast
76.1 °F
Feels Like 78 °F
N
2.5
Wind Variable Wind from SE
Gusts 8.1 mph

Today
High -- | Low -- °F
--% Chance of Precip.
Yesterday
High -- | Low -- °F
Precip. -- in
Pressure 29.95 in
Visibility 10.0 miles
Clouds Mostly Cloudy 3900 ft
Mostly Cloudy 4700 ft
Overcast 5500 ft
Heat Index 78 °F
Dew Point 65 °F
Humidity 69%
Rainfall 0.00 in
Snow Depth Not available.
7:11 AM 7:41 PM
Waxing Crescent, 10% visible
METAR KCDN 301915Z AUTO 08009KT 10SM BKN039 BKN047 OVC055 25/16 A2995 RMK AO2 LTG DSNT SW-NW
Pressure 29.95 in
Visibility 10.0 miles
Clouds Mostly Cloudy 3900 ft
Mostly Cloudy 4700 ft
Overcast 5500 ft
Heat Index 78 °F
Dew Point 65 °F
Humidity 69%
Rainfall 0.00 in
Snow Depth Not available.
7:11 AM 7:41 PM
Waxing Crescent, 10% visible
METAR KCDN 301915Z AUTO 08009KT 10SM BKN039 BKN047 OVC055 25/16 A2995 RMK AO2 LTG DSNT SW-NW

Get Your Daily Forecast Email!

Thanks for signing up!

Be on the lookout for a verification email in your inbox.

You'll start receiving severe weather alerts in your inbox..

×

10-Day Weather Forecast

Almanac

Astronomy

Mar. 30, 2017 Rise Set
Actual Time
Civil Twilight
Nautical Twilight
Astronomical Twilight
Moon
Length of Visible Light
Length of Day
Tomorrow will be .
, % of the Moon is Illuminated

Today's Extremes

State Highs State Lows

Community

WunderPhotos

Upload Photos

1,962,540 photos uploaded!

WunderBlog® & News

Nearby

Air Quality

  Air Quality AQ Index Pollutant
Not available.

Snow Depth

Station Depth Elevation

Earthquake Activity

City Distance Mag. Time & Date
Minimum magnitude displayed is 2.5.

Earthquake Activity

City Distance Mag. Time & Date
Minimum magnitude displayed is 2.5.

Coastal Water Temperatures

Place Temperature

Stations

Nearby Weather Stations

Station Location Temp. Windchill Dew Point Humidity Wind Precip. Elev Updated Type
                   

Watches & Warnings

Special Statement
Issued: 3:11 PM EDT Mar. 30, 2017 – National Weather Service

Thunderstorms extending from Columbia northward into eastern
Fairfield County at 310 PM will continue moving northeast
near 20 mph. The storms will move into Kershaw County.

The storms will likely contain dangerous lightning... wind
gusts near 40 mph and brief heavy downpours.

Locations impacted include...
Columbia, West Columbia, Cayce, Forest Acres, Dentsville,
Arcadia Lakes, Woodfield, Five Points, Blythewood, and Ridgeway.

Lat... Lon 3392 8094 3400 8115 3448 8107 3431 8081
time... Mot... loc 1908z 230deg 15kt 3422 8110